sensor_id;sensor_type;location;lat;lon;timestamp;temperature;humidity
21031;DHT22;61072;47.808;7.636;2023-03-03T00:01:01;3.10;99.90
21031;DHT22;61072;47.808;7.636;2023-03-03T00:03:27;3.10;99.90
21031;DHT22;61072;47.808;7.636;2023-03-03T00:05:54;3.00;99.90
21031;DHT22;61072;47.808;7.636;2023-03-03T00:08:21;3.00;99.90
21031;DHT22;61072;47.808;7.636;2023-03-03T00:10:48;3.00;99.90
21031;DHT22;61072;47.808;7.636;2023-03-03T00:13:21;3.00;99.90
21031;DHT22;61072;47.808;7.636;2023-03-03T00:15:48;3.00;99.90
21031;DHT22;61072;47.808;7.636;2023-03-03T00:18:27;2.90;99.90
21031;DHT22;61072;47.808;7.636;2023-03-03T00:20:57;2.90;99.90
21031;DHT22;61072;47.808;7.636;2023-03-03T00:23:38;2.90;99.90
21031;DHT22;61072;47.808;7.636;2023-03-03T00:26:29;2.90;99.90
21031;DHT22;61072;47.808;7.636;2023-03-03T00:28:59;2.90;99.90
21031;DHT22;61072;47.808;7.636;2023-03-03T00:31:33;2.90;99.90
21031;DHT22;61072;47.808;7.636;2023-03-03T00:34:24;2.80;99.90
21031;DHT22;61072;47.808;7.636;2023-03-03T00:36:56;2.80;99.90
21031;DHT22;61072;47.808;7.636;2023-03-03T00:39:33;2.80;99.90
21031;DHT22;61072;47.808;7.636;2023-03-03T00:42:04;2.70;99.90
21031;DHT22;61072;47.808;7.636;2023-03-03T00:44:47;2.70;99.90
21031;DHT22;61072;47.808;7.636;2023-03-03T00:52:38;2.70;99.90
21031;DHT22;61072;47.808;7.636;2023-03-03T00:55:06;2.60;99.90
21031;DHT22;61072;47.808;7.636;2023-03-03T00:57:33;2.70;99.90
21031;DHT22;61072;47.808;7.636;2023-03-03T01:00:00;2.60;99.90
21031;DHT22;61072;47.808;7.636;2023-03-03T01:02:27;2.60;99.90
21031;DHT22;61072;47.808;7.636;2023-03-03T01:04:53;2.60;99.90
21031;DHT22;61072;47.808;7.636;2023-03-03T01:07:23;2.60;99.90
21031;DHT22;61072;47.808;7.636;2023-03-03T01:09:49;2.60;99.90
21031;DHT22;61072;47.808;7.636;2023-03-03T01:12:16;2.60;99.90
21031;DHT22;61072;47.808;7.636;2023-03-03T01:14:43;2.60;99.90
21031;DHT22;61072;47.808;7.636;2023-03-03T01:17:10;2.50;99.90
21031;DHT22;61072;47.808;7.636;2023-03-03T01:19:37;2.50;99.90
21031;DHT22;61072;47.808;7.636;2023-03-03T01:22:04;2.50;99.90
21031;DHT22;61072;47.808;7.636;2023-03-03T01:24:30;2.50;99.90
21031;DHT22;61072;47.808;7.636;2023-03-03T01:26:57;2.50;99.90
21031;DHT22;61072;47.808;7.636;2023-03-03T01:29:24;2.50;99.90
21031;DHT22;61072;47.808;7.636;2023-03-03T01:31:50;2.50;99.90
21031;DHT22;61072;47.808;7.636;2023-03-03T01:34:17;2.50;99.90
21031;DHT22;61072;47.808;7.636;2023-03-03T01:36:44;2.40;99.90
21031;DHT22;61072;47.808;7.636;2023-03-03T01:39:11;2.50;99.90
21031;DHT22;61072;47.808;7.636;2023-03-03T01:41:38;2.40;99.90
21031;DHT22;61072;47.808;7.636;2023-03-03T01:44:05;2.50;99.90
21031;DHT22;61072;47.808;7.636;2023-03-03T01:46:45;2.50;99.90
21031;DHT22;61072;47.808;7.636;2023-03-03T01:49:26;2.50;99.90
21031;DHT22;61072;47.808;7.636;2023-03-03T01:51:57;2.40;99.90
21031;DHT22;61072;47.808;7.636;2023-03-03T01:54:33;2.40;99.90
21031;DHT22;61072;47.808;7.636;2023-03-03T01:57:05;2.50;99.90
21031;DHT22;61072;47.808;7.636;2023-03-03T01:59:36;2.50;99.90
21031;DHT22;61072;47.808;7.636;2023-03-03T02:02:05;2.60;99.90
21031;DHT22;61072;47.808;7.636;2023-03-03T02:04:33;2.60;99.90
21031;DHT22;61072;47.808;7.636;2023-03-03T02:07:04;2.60;99.90
21031;DHT22;61072;47.808;7.636;2023-03-03T02:12:16;2.70;99.90
21031;DHT22;61072;47.808;7.636;2023-03-03T02:14:44;2.70;99.90
21031;DHT22;61072;47.808;7.636;2023-03-03T02:17:11;2.80;99.90
21031;DHT22;61072;47.808;7.636;2023-03-03T02:20:05;2.80;99.90
21031;DHT22;61072;47.808;7.636;2023-03-03T02:22:43;2.80;99.90
21031;DHT22;61072;47.808;7.636;2023-03-03T02:25:17;2.80;99.90
21031;DHT22;61072;47.808;7.636;2023-03-03T02:27:48;2.80;99.90
21031;DHT22;61072;47.808;7.636;2023-03-03T02:30:20;2.80;99.90
21031;DHT22;61072;47.808;7.636;2023-03-03T02:32:47;2.80;99.90
21031;DHT22;61072;47.808;7.636;2023-03-03T02:35:37;2.80;99.90
21031;DHT22;61072;47.808;7.636;2023-03-03T02:41:07;2.70;99.90
21031;DHT22;61072;47.808;7.636;2023-03-03T02:43:43;2.70;99.90
21031;DHT22;61072;47.808;7.636;2023-03-03T02:46:12;2.70;99.90
21031;DHT22;61072;47.808;7.636;2023-03-03T02:48:38;2.60;99.90
21031;DHT22;61072;47.808;7.636;2023-03-03T02:51:05;2.60;99.90
21031;DHT22;61072;47.808;7.636;2023-03-03T02:53:32;2.70;99.90
21031;DHT22;61072;47.808;7.636;2023-03-03T02:55:59;2.60;99.90
21031;DHT22;61072;47.808;7.636;2023-03-03T02:58:25;2.60;99.90
21031;DHT22;61072;47.808;7.636;2023-03-03T03:00:52;2.60;99.90
21031;DHT22;61072;47.808;7.636;2023-03-03T03:03:18;2.60;99.90
21031;DHT22;61072;47.808;7.636;2023-03-03T03:05:46;2.60;99.90
21031;DHT22;61072;47.808;7.636;2023-03-03T03:08:12;2.60;99.90
21031;DHT22;61072;47.808;7.636;2023-03-03T03:10:39;2.60;99.90
21031;DHT22;61072;47.808;7.636;2023-03-03T03:13:06;2.60;99.90
21031;DHT22;61072;47.808;7.636;2023-03-03T03:15:34;2.60;99.90
21031;DHT22;61072;47.808;7.636;2023-03-03T03:18:01;2.70;99.90
21031;DHT22;61072;47.808;7.636;2023-03-03T03:20:28;2.70;99.90
21031;DHT22;61072;47.808;7.636;2023-03-03T03:22:54;2.70;99.90
21031;DHT22;61072;47.808;7.636;2023-03-03T03:25:21;2.70;99.90
21031;DHT22;61072;47.808;7.636;2023-03-03T03:27:47;2.80;99.90
21031;DHT22;61072;47.808;7.636;2023-03-03T03:30:14;2.80;99.90
21031;DHT22;61072;47.808;7.636;2023-03-03T03:32:41;2.80;99.90
21031;DHT22;61072;47.808;7.636;2023-03-03T03:35:08;2.80;99.90
21031;DHT22;61072;47.808;7.636;2023-03-03T03:37:34;2.90;99.90
21031;DHT22;61072;47.808;7.636;2023-03-03T03:40:01;2.90;99.90
21031;DHT22;61072;47.808;7.636;2023-03-03T03:42:28;2.90;99.90
21031;DHT22;61072;47.808;7.636;2023-03-03T03:44:54;2.90;99.90
21031;DHT22;61072;47.808;7.636;2023-03-03T03:47:22;3.00;99.90
21031;DHT22;61072;47.808;7.636;2023-03-03T03:49:49;3.00;99.90
21031;DHT22;61072;47.808;7.636;2023-03-03T03:52:16;3.00;99.90
21031;DHT22;61072;47.808;7.636;2023-03-03T03:54:42;3.00;99.90
21031;DHT22;61072;47.808;7.636;2023-03-03T03:57:09;3.00;99.90
21031;DHT22;61072;47.808;7.636;2023-03-03T03:59:36;3.00;99.90
21031;DHT22;61072;47.808;7.636;2023-03-03T04:02:02;3.00;99.90
21031;DHT22;61072;47.808;7.636;2023-03-03T04:04:30;3.00;99.90
21031;DHT22;61072;47.808;7.636;2023-03-03T04:06:56;3.00;99.90
21031;DHT22;61072;47.808;7.636;2023-03-03T04:09:25;3.00;99.90
21031;DHT22;61072;47.808;7.636;2023-03-03T04:11:53;3.00;99.90
21031;DHT22;61072;47.808;7.636;2023-03-03T04:14:20;3.00;99.90
21031;DHT22;61072;47.808;7.636;2023-03-03T04:16:46;2.90;99.90
21031;DHT22;61072;47.808;7.636;2023-03-03T04:19:13;2.90;99.90
21031;DHT22;61072;47.808;7.636;2023-03-03T04:21:40;2.90;99.90
21031;DHT22;61072;47.808;7.636;2023-03-03T04:24:07;2.40;99.90
21031;DHT22;61072;47.808;7.636;2023-03-03T04:26:34;2.20;99.90
21031;DHT22;61072;47.808;7.636;2023-03-03T04:29:01;2.20;99.90
21031;DHT22;61072;47.808;7.636;2023-03-03T04:31:27;2.20;99.90
21031;DHT22;61072;47.808;7.636;2023-03-03T04:33:54;2.20;99.90
21031;DHT22;61072;47.808;7.636;2023-03-03T04:36:21;2.30;99.90
21031;DHT22;61072;47.808;7.636;2023-03-03T04:38:48;2.40;99.90
21031;DHT22;61072;47.808;7.636;2023-03-03T04:41:15;2.40;99.90
21031;DHT22;61072;47.808;7.636;2023-03-03T04:43:42;2.50;99.90
21031;DHT22;61072;47.808;7.636;2023-03-03T04:46:09;2.40;99.90
21031;DHT22;61072;47.808;7.636;2023-03-03T04:48:36;2.50;99.90
21031;DHT22;61072;47.808;7.636;2023-03-03T04:51:04;2.40;99.90
21031;DHT22;61072;47.808;7.636;2023-03-03T04:53:30;2.30;99.90
21031;DHT22;61072;47.808;7.636;2023-03-03T04:55:57;2.30;99.90
21031;DHT22;61072;47.808;7.636;2023-03-03T04:58:24;2.30;99.90
21031;DHT22;61072;47.808;7.636;2023-03-03T05:00:55;2.30;99.90
21031;DHT22;61072;47.808;7.636;2023-03-03T05:03:22;2.40;99.90
21031;DHT22;61072;47.808;7.636;2023-03-03T05:05:49;2.40;99.90
21031;DHT22;61072;47.808;7.636;2023-03-03T05:08:16;2.40;99.90
21031;DHT22;61072;47.808;7.636;2023-03-03T05:10:43;2.50;99.90
21031;DHT22;61072;47.808;7.636;2023-03-03T05:13:10;2.50;99.90
21031;DHT22;61072;47.808;7.636;2023-03-03T05:15:36;2.50;99.90
21031;DHT22;61072;47.808;7.636;2023-03-03T05:18:03;2.50;99.90
21031;DHT22;61072;47.808;7.636;2023-03-03T05:20:30;2.50;99.90
21031;DHT22;61072;47.808;7.636;2023-03-03T05:22:57;2.60;99.90
21031;DHT22;61072;47.808;7.636;2023-03-03T05:25:27;2.60;99.90
21031;DHT22;61072;47.808;7.636;2023-03-03T05:27:53;2.60;99.90
21031;DHT22;61072;47.808;7.636;2023-03-03T05:30:20;2.60;99.90
21031;DHT22;61072;47.808;7.636;2023-03-03T05:32:47;2.60;99.90
21031;DHT22;61072;47.808;7.636;2023-03-03T05:35:14;2.60;99.90
21031;DHT22;61072;47.808;7.636;2023-03-03T05:37:40;2.60;99.90
21031;DHT22;61072;47.808;7.636;2023-03-03T05:40:13;2.70;99.90
21031;DHT22;61072;47.808;7.636;2023-03-03T05:42:40;2.70;99.90
21031;DHT22;61072;47.808;7.636;2023-03-03T05:45:07;2.70;99.90
21031;DHT22;61072;47.808;7.636;2023-03-03T05:47:34;2.70;99.90
21031;DHT22;61072;47.808;7.636;2023-03-03T05:50:00;2.70;99.90
21031;DHT22;61072;47.808;7.636;2023-03-03T05:52:27;2.60;99.90
21031;DHT22;61072;47.808;7.636;2023-03-03T05:54:54;2.60;99.90
21031;DHT22;61072;47.808;7.636;2023-03-03T05:57:20;2.60;99.90
21031;DHT22;61072;47.808;7.636;2023-03-03T05:59:47;2.60;99.90
21031;DHT22;61072;47.808;7.636;2023-03-03T06:02:14;2.60;99.90
21031;DHT22;61072;47.808;7.636;2023-03-03T06:04:40;2.70;99.90
21031;DHT22;61072;47.808;7.636;2023-03-03T06:07:07;2.70;99.90
21031;DHT22;61072;47.808;7.636;2023-03-03T06:09:34;2.70;99.90
21031;DHT22;61072;47.808;7.636;2023-03-03T06:12:01;2.70;99.90
21031;DHT22;61072;47.808;7.636;2023-03-03T06:14:28;2.80;99.90
21031;DHT22;61072;47.808;7.636;2023-03-03T06:16:54;2.80;99.90
21031;DHT22;61072;47.808;7.636;2023-03-03T06:19:23;2.80;99.90
21031;DHT22;61072;47.808;7.636;2023-03-03T06:21:50;2.80;99.90
21031;DHT22;61072;47.808;7.636;2023-03-03T06:24:17;2.80;99.90
21031;DHT22;61072;47.808;7.636;2023-03-03T06:26:43;2.90;99.90
21031;DHT22;61072;47.808;7.636;2023-03-03T06:29:10;2.90;99.90
21031;DHT22;61072;47.808;7.636;2023-03-03T06:31:38;2.90;99.90
21031;DHT22;61072;47.808;7.636;2023-03-03T06:34:04;2.90;99.90
21031;DHT22;61072;47.808;7.636;2023-03-03T06:36:31;2.90;99.90
21031;DHT22;61072;47.808;7.636;2023-03-03T06:38:58;3.00;99.90
21031;DHT22;61072;47.808;7.636;2023-03-03T06:41:24;3.00;99.90
21031;DHT22;61072;47.808;7.636;2023-03-03T06:43:51;3.00;99.90
21031;DHT22;61072;47.808;7.636;2023-03-03T06:46:18;3.10;99.90
21031;DHT22;61072;47.808;7.636;2023-03-03T06:48:44;3.10;99.90
21031;DHT22;61072;47.808;7.636;2023-03-03T06:51:30;3.10;99.90
21031;DHT22;61072;47.808;7.636;2023-03-03T06:54:00;3.10;99.90
21031;DHT22;61072;47.808;7.636;2023-03-03T06:56:28;3.20;99.90
21031;DHT22;61072;47.808;7.636;2023-03-03T06:58:57;3.20;99.90
21031;DHT22;61072;47.808;7.636;2023-03-03T07:01:26;3.20;99.90
21031;DHT22;61072;47.808;7.636;2023-03-03T07:03:53;3.20;99.90
21031;DHT22;61072;47.808;7.636;2023-03-03T07:06:23;3.30;99.90
21031;DHT22;61072;47.808;7.636;2023-03-03T07:08:51;3.30;99.90
21031;DHT22;61072;47.808;7.636;2023-03-03T07:11:20;3.40;99.90
21031;DHT22;61072;47.808;7.636;2023-03-03T07:13:52;3.40;99.90
21031;DHT22;61072;47.808;7.636;2023-03-03T07:16:24;3.40;99.90
21031;DHT22;61072;47.808;7.636;2023-03-03T07:18:56;3.50;99.90
21031;DHT22;61072;47.808;7.636;2023-03-03T07:21:32;3.50;99.90
21031;DHT22;61072;47.808;7.636;2023-03-03T07:24:00;3.50;99.90
21031;DHT22;61072;47.808;7.636;2023-03-03T07:26:30;3.60;99.90
21031;DHT22;61072;47.808;7.636;2023-03-03T07:29:24;3.70;99.90
21031;DHT22;61072;47.808;7.636;2023-03-03T07:31:57;3.70;99.90
21031;DHT22;61072;47.808;7.636;2023-03-03T07:34:37;3.80;99.90
21031;DHT22;61072;47.808;7.636;2023-03-03T07:37:37;3.80;99.90
21031;DHT22;61072;47.808;7.636;2023-03-03T07:42:59;3.90;99.90
21031;DHT22;61072;47.808;7.636;2023-03-03T07:45:28;4.00;99.90
21031;DHT22;61072;47.808;7.636;2023-03-03T07:48:00;4.00;99.90
21031;DHT22;61072;47.808;7.636;2023-03-03T07:50:31;4.00;99.90
21031;DHT22;61072;47.808;7.636;2023-03-03T07:53:00;4.10;99.90
21031;DHT22;61072;47.808;7.636;2023-03-03T07:55:34;4.10;99.90
21031;DHT22;61072;47.808;7.636;2023-03-03T07:58:24;4.20;99.90
21031;DHT22;61072;47.808;7.636;2023-03-03T08:03:57;4.30;99.90
21031;DHT22;61072;47.808;7.636;2023-03-03T08:06:57;4.30;99.90
21031;DHT22;61072;47.808;7.636;2023-03-03T08:14:36;4.50;99.90
21031;DHT22;61072;47.808;7.636;2023-03-03T08:17:13;4.60;99.90
21031;DHT22;61072;47.808;7.636;2023-03-03T08:19:42;4.60;99.90
21031;DHT22;61072;47.808;7.636;2023-03-03T08:22:16;4.70;99.90
21031;DHT22;61072;47.808;7.636;2023-03-03T08:24:43;4.70;99.90
21031;DHT22;61072;47.808;7.636;2023-03-03T08:27:10;4.80;99.90
21031;DHT22;61072;47.808;7.636;2023-03-03T08:29:37;4.90;99.90
21031;DHT22;61072;47.808;7.636;2023-03-03T08:32:04;4.90;99.90
21031;DHT22;61072;47.808;7.636;2023-03-03T08:34:31;5.00;99.90
21031;DHT22;61072;47.808;7.636;2023-03-03T08:36:57;5.00;99.90
21031;DHT22;61072;47.808;7.636;2023-03-03T08:39:24;5.10;99.90
21031;DHT22;61072;47.808;7.636;2023-03-03T08:41:51;5.20;99.90
21031;DHT22;61072;47.808;7.636;2023-03-03T08:44:17;5.20;99.90
21031;DHT22;61072;47.808;7.636;2023-03-03T08:46:46;5.30;99.90
21031;DHT22;61072;47.808;7.636;2023-03-03T08:49:13;5.40;99.90
21031;DHT22;61072;47.808;7.636;2023-03-03T08:51:40;5.40;99.90
21031;DHT22;61072;47.808;7.636;2023-03-03T08:54:07;5.50;99.90
21031;DHT22;61072;47.808;7.636;2023-03-03T08:56:34;5.50;99.90
21031;DHT22;61072;47.808;7.636;2023-03-03T08:59:00;5.60;99.90
21031;DHT22;61072;47.808;7.636;2023-03-03T09:01:30;5.60;99.90
21031;DHT22;61072;47.808;7.636;2023-03-03T09:03:57;5.40;99.90
21031;DHT22;61072;47.808;7.636;2023-03-03T09:06:24;5.40;99.90
21031;DHT22;61072;47.808;7.636;2023-03-03T09:08:51;5.50;99.90
21031;DHT22;61072;47.808;7.636;2023-03-03T09:11:25;5.60;99.90
21031;DHT22;61072;47.808;7.636;2023-03-03T09:14:12;5.60;99.90
21031;DHT22;61072;47.808;7.636;2023-03-03T09:19:20;5.70;99.90
21031;DHT22;61072;47.808;7.636;2023-03-03T09:21:50;5.80;99.90
21031;DHT22;61072;47.808;7.636;2023-03-03T09:24:35;5.80;99.90
21031;DHT22;61072;47.808;7.636;2023-03-03T09:27:14;5.90;99.90
21031;DHT22;61072;47.808;7.636;2023-03-03T09:29:44;5.90;99.90
21031;DHT22;61072;47.808;7.636;2023-03-03T09:34:46;6.00;99.90
21031;DHT22;61072;47.808;7.636;2023-03-03T09:37:20;5.90;99.90
21031;DHT22;61072;47.808;7.636;2023-03-03T09:39:55;5.80;99.90
21031;DHT22;61072;47.808;7.636;2023-03-03T09:42:48;5.90;99.90
21031;DHT22;61072;47.808;7.636;2023-03-03T09:45:28;5.90;99.90
21031;DHT22;61072;47.808;7.636;2023-03-03T09:48:21;5.80;99.90
21031;DHT22;61072;47.808;7.636;2023-03-03T09:53:57;5.60;99.90
21031;DHT22;61072;47.808;7.636;2023-03-03T09:56:43;5.60;99.90
21031;DHT22;61072;47.808;7.636;2023-03-03T10:02:01;5.70;99.90
21031;DHT22;61072;47.808;7.636;2023-03-03T10:05:11;5.70;99.90
21031;DHT22;61072;47.808;7.636;2023-03-03T10:18:57;5.70;99.90
21031;DHT22;61072;47.808;7.636;2023-03-03T10:29:54;5.80;99.90
21031;DHT22;61072;47.808;7.636;2023-03-03T10:32:38;5.90;99.90
21031;DHT22;61072;47.808;7.636;2023-03-03T10:35:24;6.00;99.90
21031;DHT22;61072;47.808;7.636;2023-03-03T10:41:14;6.00;99.90
21031;DHT22;61072;47.808;7.636;2023-03-03T10:44:02;6.10;99.90
21031;DHT22;61072;47.808;7.636;2023-03-03T10:55:31;6.20;99.90
21031;DHT22;61072;47.808;7.636;2023-03-03T10:58:42;6.20;99.90
21031;DHT22;61072;47.808;7.636;2023-03-03T11:06:34;6.30;99.90
21031;DHT22;61072;47.808;7.636;2023-03-03T11:09:33;6.20;99.90
21031;DHT22;61072;47.808;7.636;2023-03-03T11:20:37;6.20;99.90
21031;DHT22;61072;47.808;7.636;2023-03-03T11:23:36;6.10;99.90
21031;DHT22;61072;47.808;7.636;2023-03-03T11:29:08;6.10;99.90
21031;DHT22;61072;47.808;7.636;2023-03-03T11:37:28;6.60;99.90
21031;DHT22;61072;47.808;7.636;2023-03-03T11:39:57;6.60;99.90
21031;DHT22;61072;47.808;7.636;2023-03-03T11:42:54;6.70;99.90
21031;DHT22;61072;47.808;7.636;2023-03-03T11:45:36;6.80;99.90
21031;DHT22;61072;47.808;7.636;2023-03-03T11:50:52;7.00;99.90
21031;DHT22;61072;47.808;7.636;2023-03-03T12:01:53;7.30;99.90
21031;DHT22;61072;47.808;7.636;2023-03-03T12:04:28;7.30;99.90
21031;DHT22;61072;47.808;7.636;2023-03-03T12:12:45;7.20;99.90
21031;DHT22;61072;47.808;7.636;2023-03-03T12:15:25;7.30;99.90
21031;DHT22;61072;47.808;7.636;2023-03-03T12:20:56;7.30;99.90
21031;DHT22;61072;47.808;7.636;2023-03-03T12:29:26;7.50;99.90
21031;DHT22;61072;47.808;7.636;2023-03-03T12:32:09;7.50;99.90
21031;DHT22;61072;47.808;7.636;2023-03-03T12:34:56;7.60;99.90
21031;DHT22;61072;47.808;7.636;2023-03-03T12:37:46;7.50;99.90
21031;DHT22;61072;47.808;7.636;2023-03-03T12:40:24;7.60;99.90
21031;DHT22;61072;47.808;7.636;2023-03-03T12:43:02;7.60;99.90
21031;DHT22;61072;47.808;7.636;2023-03-03T12:45:40;7.60;99.90
21031;DHT22;61072;47.808;7.636;2023-03-03T12:56:29;8.00;99.90
21031;DHT22;61072;47.808;7.636;2023-03-03T12:59:08;8.10;99.90
21031;DHT22;61072;47.808;7.636;2023-03-03T13:01:52;7.90;99.90
21031;DHT22;61072;47.808;7.636;2023-03-03T13:07:21;7.70;99.90
21031;DHT22;61072;47.808;7.636;2023-03-03T13:17:59;7.50;99.90
21031;DHT22;61072;47.808;7.636;2023-03-03T13:26:06;7.50;99.90
21031;DHT22;61072;47.808;7.636;2023-03-03T13:31:38;7.50;99.90
21031;DHT22;61072;47.808;7.636;2023-03-03T13:34:07;7.60;99.90
21031;DHT22;61072;47.808;7.636;2023-03-03T13:36:41;7.60;99.90
21031;DHT22;61072;47.808;7.636;2023-03-03T13:39:22;7.60;99.90
21031;DHT22;61072;47.808;7.636;2023-03-03T13:42:20;7.60;99.90
21031;DHT22;61072;47.808;7.636;2023-03-03T13:44:49;7.60;99.90
21031;DHT22;61072;47.808;7.636;2023-03-03T13:47:35;7.50;99.90
21031;DHT22;61072;47.808;7.636;2023-03-03T13:53:28;7.80;99.90
21031;DHT22;61072;47.808;7.636;2023-03-03T13:59:05;7.90;99.90
21031;DHT22;61072;47.808;7.636;2023-03-03T14:01:56;8.00;99.90
21031;DHT22;61072;47.808;7.636;2023-03-03T14:04:44;7.90;99.90
21031;DHT22;61072;47.808;7.636;2023-03-03T14:07:22;7.90;99.90
21031;DHT22;61072;47.808;7.636;2023-03-03T14:12:39;7.90;99.90
21031;DHT22;61072;47.808;7.636;2023-03-03T14:15:23;7.90;99.90
21031;DHT22;61072;47.808;7.636;2023-03-03T14:20:37;7.80;99.90
21031;DHT22;61072;47.808;7.636;2023-03-03T14:23:22;7.80;99.90
21031;DHT22;61072;47.808;7.636;2023-03-03T14:28:20;7.70;99.90
21031;DHT22;61072;47.808;7.636;2023-03-03T14:30:47;7.70;99.90
21031;DHT22;61072;47.808;7.636;2023-03-03T14:33:19;7.70;99.90
21031;DHT22;61072;47.808;7.636;2023-03-03T14:36:00;7.70;99.90
21031;DHT22;61072;47.808;7.636;2023-03-03T14:41:14;7.70;99.90
21031;DHT22;61072;47.808;7.636;2023-03-03T14:43:58;7.80;99.90
21031;DHT22;61072;47.808;7.636;2023-03-03T14:48:54;7.80;99.90
21031;DHT22;61072;47.808;7.636;2023-03-03T14:51:40;7.80;99.90
21031;DHT22;61072;47.808;7.636;2023-03-03T14:54:13;7.80;99.90
21031;DHT22;61072;47.808;7.636;2023-03-03T14:59:33;7.80;99.90
21031;DHT22;61072;47.808;7.636;2023-03-03T15:04:44;7.80;99.90
21031;DHT22;61072;47.808;7.636;2023-03-03T15:07:31;7.80;99.90
21031;DHT22;61072;47.808;7.636;2023-03-03T15:09:58;7.80;99.90
21031;DHT22;61072;47.808;7.636;2023-03-03T15:12:37;7.70;99.90
21031;DHT22;61072;47.808;7.636;2023-03-03T15:17:40;7.80;99.90
21031;DHT22;61072;47.808;7.636;2023-03-03T15:20:12;7.70;99.90
21031;DHT22;61072;47.808;7.636;2023-03-03T15:25:32;7.70;99.90
21031;DHT22;61072;47.808;7.636;2023-03-03T15:28:24;7.70;99.90
21031;DHT22;61072;47.808;7.636;2023-03-03T15:34:19;7.70;99.90
21031;DHT22;61072;47.808;7.636;2023-03-03T15:36:59;7.70;99.90
21031;DHT22;61072;47.808;7.636;2023-03-03T15:39:40;7.60;99.90
21031;DHT22;61072;47.808;7.636;2023-03-03T15:50:32;7.70;99.90
21031;DHT22;61072;47.808;7.636;2023-03-03T15:53:28;7.70;99.90
21031;DHT22;61072;47.808;7.636;2023-03-03T15:56:14;7.70;99.90
21031;DHT22;61072;47.808;7.636;2023-03-03T15:58:49;7.70;99.90
21031;DHT22;61072;47.808;7.636;2023-03-03T16:01:32;7.70;99.90
21031;DHT22;61072;47.808;7.636;2023-03-03T16:04:00;7.60;99.90
21031;DHT22;61072;47.808;7.636;2023-03-03T16:09:23;7.50;99.90
21031;DHT22;61072;47.808;7.636;2023-03-03T16:20:34;7.40;99.90
21031;DHT22;61072;47.808;7.636;2023-03-03T16:25:53;7.30;99.90
21031;DHT22;61072;47.808;7.636;2023-03-03T16:31:46;7.30;99.90
21031;DHT22;61072;47.808;7.636;2023-03-03T16:37:37;7.30;99.90
21031;DHT22;61072;47.808;7.636;2023-03-03T16:40:20;7.30;99.90
21031;DHT22;61072;47.808;7.636;2023-03-03T16:43:35;7.20;99.90
21031;DHT22;61072;47.808;7.636;2023-03-03T16:45:40;7.20;99.90
21031;DHT22;61072;47.808;7.636;2023-03-03T16:51:22;7.30;99.90
21031;DHT22;61072;47.808;7.636;2023-03-03T16:53:57;7.30;99.90
21031;DHT22;61072;47.808;7.636;2023-03-03T16:56:57;7.30;99.90
21031;DHT22;61072;47.808;7.636;2023-03-03T17:10:34;7.20;99.90
21031;DHT22;61072;47.808;7.636;2023-03-03T17:15:51;7.20;99.90
21031;DHT22;61072;47.808;7.636;2023-03-03T17:18:48;7.20;99.90
21031;DHT22;61072;47.808;7.636;2023-03-03T17:21:31;7.10;99.90
21031;DHT22;61072;47.808;7.636;2023-03-03T17:24:16;7.10;99.90
21031;DHT22;61072;47.808;7.636;2023-03-03T17:27:08;7.10;99.90
21031;DHT22;61072;47.808;7.636;2023-03-03T17:41:10;7.00;99.90
21031;DHT22;61072;47.808;7.636;2023-03-03T17:44:05;7.00;99.90
21031;DHT22;61072;47.808;7.636;2023-03-03T17:46:49;7.00;99.90
21031;DHT22;61072;47.808;7.636;2023-03-03T17:50:00;7.00;99.90
21031;DHT22;61072;47.808;7.636;2023-03-03T17:52:37;7.00;99.90
21031;DHT22;61072;47.808;7.636;2023-03-03T17:55:37;7.00;99.90
21031;DHT22;61072;47.808;7.636;2023-03-03T18:01:13;6.90;99.90
21031;DHT22;61072;47.808;7.636;2023-03-03T18:03:54;6.90;99.90
21031;DHT22;61072;47.808;7.636;2023-03-03T18:06:54;6.90;99.90
21031;DHT22;61072;47.808;7.636;2023-03-03T18:17:42;6.70;99.90
21031;DHT22;61072;47.808;7.636;2023-03-03T18:26:39;6.70;99.90
21031;DHT22;61072;47.808;7.636;2023-03-03T18:29:16;6.70;99.90
21031;DHT22;61072;47.808;7.636;2023-03-03T18:36:59;6.70;99.90
21031;DHT22;61072;47.808;7.636;2023-03-03T18:39:46;6.70;99.90
21031;DHT22;61072;47.808;7.636;2023-03-03T18:44:51;6.60;99.90
21031;DHT22;61072;47.808;7.636;2023-03-03T18:47:18;6.60;99.90
21031;DHT22;61072;47.808;7.636;2023-03-03T18:49:47;6.60;99.90
21031;DHT22;61072;47.808;7.636;2023-03-03T18:52:27;6.60;99.90
21031;DHT22;61072;47.808;7.636;2023-03-03T18:55:37;6.60;99.90
21031;DHT22;61072;47.808;7.636;2023-03-03T18:58:21;6.60;99.90
21031;DHT22;61072;47.808;7.636;2023-03-03T19:00:55;6.50;99.90
21031;DHT22;61072;47.808;7.636;2023-03-03T19:03:55;6.50;99.90
21031;DHT22;61072;47.808;7.636;2023-03-03T19:09:05;6.50;99.90
21031;DHT22;61072;47.808;7.636;2023-03-03T19:11:52;6.50;99.90
21031;DHT22;61072;47.808;7.636;2023-03-03T19:16:55;6.50;99.90
21031;DHT22;61072;47.808;7.636;2023-03-03T19:19:30;6.50;99.90
21031;DHT22;61072;47.808;7.636;2023-03-03T19:22:28;6.50;99.90
21031;DHT22;61072;47.808;7.636;2023-03-03T19:30:38;6.50;99.90
21031;DHT22;61072;47.808;7.636;2023-03-03T19:52:05;6.50;99.90
21031;DHT22;61072;47.808;7.636;2023-03-03T20:00:33;6.50;99.90
21031;DHT22;61072;47.808;7.636;2023-03-03T20:03:28;6.50;99.90
21031;DHT22;61072;47.808;7.636;2023-03-03T20:17:24;6.40;99.90
21031;DHT22;61072;47.808;7.636;2023-03-03T20:20:05;6.30;99.90
21031;DHT22;61072;47.808;7.636;2023-03-03T20:25:26;6.20;99.90
21031;DHT22;61072;47.808;7.636;2023-03-03T20:28:25;6.10;99.90
21031;DHT22;61072;47.808;7.636;2023-03-03T20:31:08;6.10;99.90
21031;DHT22;61072;47.808;7.636;2023-03-03T20:42:10;5.80;99.90
21031;DHT22;61072;47.808;7.636;2023-03-03T20:52:39;5.60;99.90
21031;DHT22;61072;47.808;7.636;2023-03-03T20:58:00;5.50;99.90
21031;DHT22;61072;47.808;7.636;2023-03-03T21:00:48;5.50;99.90
21031;DHT22;61072;47.808;7.636;2023-03-03T21:06:04;5.40;99.90
21031;DHT22;61072;47.808;7.636;2023-03-03T21:11:05;5.30;99.90
21031;DHT22;61072;47.808;7.636;2023-03-03T21:13:40;5.20;99.90
21031;DHT22;61072;47.808;7.636;2023-03-03T21:19:08;5.20;99.90
21031;DHT22;61072;47.808;7.636;2023-03-03T21:21:47;5.10;99.90
21031;DHT22;61072;47.808;7.636;2023-03-03T21:24:15;5.10;99.90
21031;DHT22;61072;47.808;7.636;2023-03-03T21:29:17;5.00;99.90
21031;DHT22;61072;47.808;7.636;2023-03-03T21:31:46;5.00;99.90
21031;DHT22;61072;47.808;7.636;2023-03-03T21:36:50;4.90;99.90
21031;DHT22;61072;47.808;7.636;2023-03-03T21:41:50;4.90;99.90
21031;DHT22;61072;47.808;7.636;2023-03-03T21:44:29;4.80;99.90
21031;DHT22;61072;47.808;7.636;2023-03-03T21:46:55;4.80;99.90
21031;DHT22;61072;47.808;7.636;2023-03-03T21:49:24;4.80;99.90
21031;DHT22;61072;47.808;7.636;2023-03-03T21:51:51;4.70;99.90
21031;DHT22;61072;47.808;7.636;2023-03-03T21:54:17;4.70;99.90
21031;DHT22;61072;47.808;7.636;2023-03-03T21:56:44;4.70;99.90
21031;DHT22;61072;47.808;7.636;2023-03-03T21:59:13;4.70;99.90
21031;DHT22;61072;47.808;7.636;2023-03-03T22:01:40;4.60;99.90
21031;DHT22;61072;47.808;7.636;2023-03-03T22:04:06;4.60;99.90
21031;DHT22;61072;47.808;7.636;2023-03-03T22:06:33;4.50;99.90